sensor_id;sensor_type;location;lat;lon;timestamp;P1;durP1;ratioP1;P2;durP2;ratioP2
48627;SDS011;34424;52.234;6.500;2024-02-26T00:04:33;11.6;;;8.6;;
48627;SDS011;34424;52.234;6.500;2024-02-26T00:09:33;9.6;;;7.1;;
48627;SDS011;34424;52.234;6.500;2024-02-26T00:14:33;10.7;;;8.1;;
48627;SDS011;34424;52.234;6.500;2024-02-26T00:19:34;11.2;;;7.9;;
48627;SDS011;34424;52.234;6.500;2024-02-26T00:24:34;12.1;;;8.5;;
48627;SDS011;34424;52.234;6.500;2024-02-26T00:29:33;11.7;;;9;;
48627;SDS011;34424;52.234;6.500;2024-02-26T00:34:33;12.1;;;8.9;;
48627;SDS011;34424;52.234;6.500;2024-02-26T00:39:34;14.4;;;9.2;;
48627;SDS011;34424;52.234;6.500;2024-02-26T00:44:33;11.4;;;8.8;;
48627;SDS011;34424;52.234;6.500;2024-02-26T00:49:33;13.2;;;9.3;;
48627;SDS011;34424;52.234;6.500;2024-02-26T00:54:33;14.8;;;9.5;;
48627;SDS011;34424;52.234;6.500;2024-02-26T00:59:24;13.4;;;9.5;;
48627;SDS011;34424;52.234;6.500;2024-02-26T01:04:23;14.7;;;9.5;;
48627;SDS011;34424;52.234;6.500;2024-02-26T01:09:23;17.2;;;10;;
48627;SDS011;34424;52.234;6.500;2024-02-26T01:14:23;14.8;;;9.8;;
48627;SDS011;34424;52.234;6.500;2024-02-26T01:19:22;15.2;;;10.3;;
48627;SDS011;34424;52.234;6.500;2024-02-26T01:24:22;11.6;;;8.1;;
48627;SDS011;34424;52.234;6.500;2024-02-26T01:29:21;14.4;;;8.7;;
48627;SDS011;34424;52.234;6.500;2024-02-26T01:34:21;11.7;;;7.8;;
48627;SDS011;34424;52.234;6.500;2024-02-26T01:39:21;13;;;8.4;;
48627;SDS011;34424;52.234;6.500;2024-02-26T01:44:20;11.5;;;7.6;;
48627;SDS011;34424;52.234;6.500;2024-02-26T01:49:20;14.4;;;8.5;;
48627;SDS011;34424;52.234;6.500;2024-02-26T01:54:20;9.1;;;6.8;;
48627;SDS011;34424;52.234;6.500;2024-02-26T01:59:19;14.2;;;8.4;;
48627;SDS011;34424;52.234;6.500;2024-02-26T02:04:19;11.2;;;7.2;;
48627;SDS011;34424;52.234;6.500;2024-02-26T02:09:19;10.2;;;7.3;;
48627;SDS011;34424;52.234;6.500;2024-02-26T02:14:18;10.5;;;6.9;;
48627;SDS011;34424;52.234;6.500;2024-02-26T02:19:18;10;;;7.2;;
48627;SDS011;34424;52.234;6.500;2024-02-26T02:24:18;13.3;;;7.4;;
48627;SDS011;34424;52.234;6.500;2024-02-26T02:29:17;9.5;;;6.9;;
48627;SDS011;34424;52.234;6.500;2024-02-26T02:34:17;10.6;;;7.5;;
48627;SDS011;34424;52.234;6.500;2024-02-26T02:39:17;11;;;7.8;;
48627;SDS011;34424;52.234;6.500;2024-02-26T02:44:16;10.4;;;7.3;;
48627;SDS011;34424;52.234;6.500;2024-02-26T02:49:16;11.2;;;7.8;;
48627;SDS011;34424;52.234;6.500;2024-02-26T02:54:16;10.2;;;7.3;;
48627;SDS011;34424;52.234;6.500;2024-02-26T02:59:15;11.1;;;7.8;;
48627;SDS011;34424;52.234;6.500;2024-02-26T03:04:15;12.8;;;7.2;;
48627;SDS011;34424;52.234;6.500;2024-02-26T03:09:15;10.4;;;7.4;;
48627;SDS011;34424;52.234;6.500;2024-02-26T03:14:14;11.3;;;7.3;;
48627;SDS011;34424;52.234;6.500;2024-02-26T03:19:14;9.5;;;7.5;;
48627;SDS011;34424;52.234;6.500;2024-02-26T03:24:14;10.9;;;7.3;;
48627;SDS011;34424;52.234;6.500;2024-02-26T03:29:13;11.4;;;6.9;;
48627;SDS011;34424;52.234;6.500;2024-02-26T03:34:13;9.9;;;7;;
48627;SDS011;34424;52.234;6.500;2024-02-26T03:39:12;9.4;;;7.3;;
48627;SDS011;34424;52.234;6.500;2024-02-26T03:44:12;10.2;;;7;;
48627;SDS011;34424;52.234;6.500;2024-02-26T03:49:12;9.4;;;6.8;;
48627;SDS011;34424;52.234;6.500;2024-02-26T03:54:11;9.2;;;6.1;;
48627;SDS011;34424;52.234;6.500;2024-02-26T03:59:11;9.8;;;7.1;;
48627;SDS011;34424;52.234;6.500;2024-02-26T04:04:11;9.4;;;7.2;;
48627;SDS011;34424;52.234;6.500;2024-02-26T04:09:10;9.5;;;7.5;;
48627;SDS011;34424;52.234;6.500;2024-02-26T04:14:10;8.5;;;6.6;;
48627;SDS011;34424;52.234;6.500;2024-02-26T04:19:10;9.7;;;7.2;;
48627;SDS011;34424;52.234;6.500;2024-02-26T04:24:09;10.1;;;6.9;;
48627;SDS011;34424;52.234;6.500;2024-02-26T04:29:09;8.1;;;5.9;;
48627;SDS011;34424;52.234;6.500;2024-02-26T04:34:09;8.2;;;6;;
48627;SDS011;34424;52.234;6.500;2024-02-26T04:39:08;8.6;;;5.9;;
48627;SDS011;34424;52.234;6.500;2024-02-26T04:44:08;8.1;;;6;;
48627;SDS011;34424;52.234;6.500;2024-02-26T04:49:08;7.2;;;5.8;;
48627;SDS011;34424;52.234;6.500;2024-02-26T04:54:07;7;;;5.4;;
48627;SDS011;34424;52.234;6.500;2024-02-26T04:59:07;8.2;;;5.5;;
48627;SDS011;34424;52.234;6.500;2024-02-26T05:04:07;7.5;;;5.2;;
48627;SDS011;34424;52.234;6.500;2024-02-26T05:09:06;8.1;;;5.6;;
48627;SDS011;34424;52.234;6.500;2024-02-26T05:14:06;6.4;;;5.3;;
48627;SDS011;34424;52.234;6.500;2024-02-26T05:19:05;7.3;;;5.5;;
48627;SDS011;34424;52.234;6.500;2024-02-26T05:24:05;7.6;;;5.6;;
48627;SDS011;34424;52.234;6.500;2024-02-26T05:29:05;7.7;;;6;;
48627;SDS011;34424;52.234;6.500;2024-02-26T05:34:04;8.5;;;6.2;;
48627;SDS011;34424;52.234;6.500;2024-02-26T05:39:04;8;;;6.1;;
48627;SDS011;34424;52.234;6.500;2024-02-26T05:44:04;7.7;;;6;;
48627;SDS011;34424;52.234;6.500;2024-02-26T05:49:03;9.7;;;6.7;;
48627;SDS011;34424;52.234;6.500;2024-02-26T05:54:03;8.4;;;5.8;;
48627;SDS011;34424;52.234;6.500;2024-02-26T05:59:03;7.9;;;6.1;;
48627;SDS011;34424;52.234;6.500;2024-02-26T06:04:03;6.9;;;5.9;;
48627;SDS011;34424;52.234;6.500;2024-02-26T06:09:02;6.5;;;5.3;;
48627;SDS011;34424;52.234;6.500;2024-02-26T06:14:02;8.2;;;5.9;;
48627;SDS011;34424;52.234;6.500;2024-02-26T06:19:02;7;;;5.7;;
48627;SDS011;34424;52.234;6.500;2024-02-26T06:24:01;7.7;;;5.3;;
48627;SDS011;34424;52.234;6.500;2024-02-26T06:29:01;8.1;;;6.3;;
48627;SDS011;34424;52.234;6.500;2024-02-26T06:34:01;8.6;;;6.1;;
48627;SDS011;34424;52.234;6.500;2024-02-26T06:39:00;8.7;;;6.8;;
48627;SDS011;34424;52.234;6.500;2024-02-26T06:44:00;11;;;7.4;;
48627;SDS011;34424;52.234;6.500;2024-02-26T06:48:59;10.9;;;7.4;;
48627;SDS011;34424;52.234;6.500;2024-02-26T06:53:59;10.7;;;8.1;;
48627;SDS011;34424;52.234;6.500;2024-02-26T06:58:59;12.2;;;8.8;;
48627;SDS011;34424;52.234;6.500;2024-02-26T07:03:58;12.2;;;8.4;;
48627;SDS011;34424;52.234;6.500;2024-02-26T07:08:58;13.6;;;8.9;;
48627;SDS011;34424;52.234;6.500;2024-02-26T07:13:58;14.3;;;9.6;;
48627;SDS011;34424;52.234;6.500;2024-02-26T07:18:57;12.7;;;9.4;;
48627;SDS011;34424;52.234;6.500;2024-02-26T07:23:57;14.8;;;9.9;;
48627;SDS011;34424;52.234;6.500;2024-02-26T07:28:57;13.5;;;11;;
48627;SDS011;34424;52.234;6.500;2024-02-26T07:33:56;16.3;;;10.6;;
48627;SDS011;34424;52.234;6.500;2024-02-26T07:38:56;17.2;;;11.9;;
48627;SDS011;34424;52.234;6.500;2024-02-26T07:43:56;17.1;;;12;;
48627;SDS011;34424;52.234;6.500;2024-02-26T07:48:55;16.8;;;10.7;;
48627;SDS011;34424;52.234;6.500;2024-02-26T07:53:55;16.7;;;10.9;;
48627;SDS011;34424;52.234;6.500;2024-02-26T07:58:55;16.3;;;10.3;;
48627;SDS011;34424;52.234;6.500;2024-02-26T08:03:55;14.8;;;10.4;;
48627;SDS011;34424;52.234;6.500;2024-02-26T08:08:54;16;;;10.5;;
48627;SDS011;34424;52.234;6.500;2024-02-26T08:13:54;15.4;;;9.4;;
48627;SDS011;34424;52.234;6.500;2024-02-26T08:18:54;14.1;;;8.9;;
48627;SDS011;34424;52.234;6.500;2024-02-26T08:23:53;15.1;;;10;;
48627;SDS011;34424;52.234;6.500;2024-02-26T08:28:53;13.1;;;9;;
48627;SDS011;34424;52.234;6.500;2024-02-26T08:33:53;15.6;;;9.1;;
48627;SDS011;34424;52.234;6.500;2024-02-26T08:38:52;14.7;;;9.2;;
48627;SDS011;34424;52.234;6.500;2024-02-26T08:43:52;16.6;;;9;;
48627;SDS011;34424;52.234;6.500;2024-02-26T08:48:52;14.2;;;9;;
48627;SDS011;34424;52.234;6.500;2024-02-26T08:53:51;16.7;;;10.6;;
48627;SDS011;34424;52.234;6.500;2024-02-26T08:58:51;17.7;;;9.5;;
48627;SDS011;34424;52.234;6.500;2024-02-26T09:03:51;18.6;;;11.2;;
48627;SDS011;34424;52.234;6.500;2024-02-26T09:08:50;19.2;;;11.2;;
48627;SDS011;34424;52.234;6.500;2024-02-26T09:13:50;20.6;;;12.6;;
48627;SDS011;34424;52.234;6.500;2024-02-26T09:18:50;21;;;12.2;;
48627;SDS011;34424;52.234;6.500;2024-02-26T09:23:50;24.7;;;13.6;;
48627;SDS011;34424;52.234;6.500;2024-02-26T09:28:49;21.2;;;12.3;;
48627;SDS011;34424;52.234;6.500;2024-02-26T09:33:49;21;;;12.2;;
48627;SDS011;34424;52.234;6.500;2024-02-26T09:38:48;21.7;;;13.4;;
48627;SDS011;34424;52.234;6.500;2024-02-26T09:43:48;21.3;;;12.4;;
48627;SDS011;34424;52.234;6.500;2024-02-26T09:48:48;19.5;;;11.9;;
48627;SDS011;34424;52.234;6.500;2024-02-26T09:53:48;21.5;;;13.3;;
48627;SDS011;34424;52.234;6.500;2024-02-26T09:58:47;19.7;;;12.7;;
48627;SDS011;34424;52.234;6.500;2024-02-26T10:03:48;18;;;12.1;;
48627;SDS011;34424;52.234;6.500;2024-02-26T10:08:47;19.9;;;12.7;;
48627;SDS011;34424;52.234;6.500;2024-02-26T10:13:46;19;;;12;;
48627;SDS011;34424;52.234;6.500;2024-02-26T10:18:49;21.3;;;12.2;;
48627;SDS011;34424;52.234;6.500;2024-02-26T10:23:46;17.7;;;12;;
48627;SDS011;34424;52.234;6.500;2024-02-26T10:28:45;19.1;;;11.8;;
48627;SDS011;34424;52.234;6.500;2024-02-26T10:33:45;18.7;;;12.3;;
48627;SDS011;34424;52.234;6.500;2024-02-26T10:38:45;18.1;;;11.5;;
48627;SDS011;34424;52.234;6.500;2024-02-26T10:43:46;19.6;;;12;;
48627;SDS011;34424;52.234;6.500;2024-02-26T10:48:44;16;;;11.4;;
48627;SDS011;34424;52.234;6.500;2024-02-26T10:53:44;15;;;10.2;;
48627;SDS011;34424;52.234;6.500;2024-02-26T10:58:43;14.8;;;10.1;;
48627;SDS011;34424;52.234;6.500;2024-02-26T11:03:43;13.8;;;8.7;;
48627;SDS011;34424;52.234;6.500;2024-02-26T11:08:43;13.8;;;9.2;;
48627;SDS011;34424;52.234;6.500;2024-02-26T11:13:43;13.1;;;8.4;;
48627;SDS011;34424;52.234;6.500;2024-02-26T11:18:43;16.2;;;9.4;;
48627;SDS011;34424;52.234;6.500;2024-02-26T11:23:42;14.2;;;9.7;;
48627;SDS011;34424;52.234;6.500;2024-02-26T11:28:41;13.5;;;8.8;;
48627;SDS011;34424;52.234;6.500;2024-02-26T11:33:41;13.9;;;9.5;;
48627;SDS011;34424;52.234;6.500;2024-02-26T11:38:41;10.9;;;7.8;;
48627;SDS011;34424;52.234;6.500;2024-02-26T11:43:53;11.8;;;8.6;;
48627;SDS011;34424;52.234;6.500;2024-02-26T11:48:40;10.8;;;7.2;;
48627;SDS011;34424;52.234;6.500;2024-02-26T11:53:45;10.7;;;7.3;;
48627;SDS011;34424;52.234;6.500;2024-02-26T11:58:42;9.5;;;7.4;;
48627;SDS011;34424;52.234;6.500;2024-02-26T12:03:39;11;;;7.9;;
48627;SDS011;34424;52.234;6.500;2024-02-26T12:08:39;12.5;;;9;;
48627;SDS011;34424;52.234;6.500;2024-02-26T12:13:39;10.8;;;7.2;;
48627;SDS011;34424;52.234;6.500;2024-02-26T12:18:38;10.5;;;8.6;;
48627;SDS011;34424;52.234;6.500;2024-02-26T12:23:38;12.1;;;8;;
48627;SDS011;34424;52.234;6.500;2024-02-26T12:28:38;12.8;;;8.5;;
48627;SDS011;34424;52.234;6.500;2024-02-26T12:33:38;12.9;;;9.1;;
48627;SDS011;34424;52.234;6.500;2024-02-26T12:38:37;14.1;;;9.2;;
48627;SDS011;34424;52.234;6.500;2024-02-26T12:43:37;13.5;;;8.7;;
48627;SDS011;34424;52.234;6.500;2024-02-26T12:48:37;13.5;;;8.8;;
48627;SDS011;34424;52.234;6.500;2024-02-26T12:53:36;11.4;;;9.5;;
48627;SDS011;34424;52.234;6.500;2024-02-26T12:58:36;11.2;;;7.9;;
48627;SDS011;34424;52.234;6.500;2024-02-26T13:03:36;13.2;;;8.5;;
48627;SDS011;34424;52.234;6.500;2024-02-26T13:08:36;10.9;;;9.2;;
48627;SDS011;34424;52.234;6.500;2024-02-26T13:13:35;11;;;8.6;;
48627;SDS011;34424;52.234;6.500;2024-02-26T13:18:35;11.2;;;7.9;;
48627;SDS011;34424;52.234;6.500;2024-02-26T13:23:35;10.6;;;8.2;;
48627;SDS011;34424;52.234;6.500;2024-02-26T13:28:34;9.6;;;7.3;;
48627;SDS011;34424;52.234;6.500;2024-02-26T13:33:34;9.9;;;7.8;;
48627;SDS011;34424;52.234;6.500;2024-02-26T13:38:34;11;;;8.4;;
48627;SDS011;34424;52.234;6.500;2024-02-26T13:43:33;9.9;;;7.8;;
48627;SDS011;34424;52.234;6.500;2024-02-26T13:48:33;11.3;;;9.3;;
48627;SDS011;34424;52.234;6.500;2024-02-26T13:53:33;10.2;;;7.8;;
48627;SDS011;34424;52.234;6.500;2024-02-26T13:58:33;11.1;;;9.1;;
48627;SDS011;34424;52.234;6.500;2024-02-26T14:03:32;10.4;;;7.5;;
48627;SDS011;34424;52.234;6.500;2024-02-26T14:08:32;12.6;;;11.1;;
48627;SDS011;34424;52.234;6.500;2024-02-26T14:13:32;11.6;;;8.2;;
48627;SDS011;34424;52.234;6.500;2024-02-26T14:18:31;9.7;;;8.7;;
48627;SDS011;34424;52.234;6.500;2024-02-26T14:23:31;10.9;;;9.4;;
48627;SDS011;34424;52.234;6.500;2024-02-26T14:28:31;10.6;;;7.5;;
48627;SDS011;34424;52.234;6.500;2024-02-26T14:33:31;11.7;;;10.1;;
48627;SDS011;34424;52.234;6.500;2024-02-26T14:38:30;20.8;;;14.2;;
48627;SDS011;34424;52.234;6.500;2024-02-26T14:43:30;12.1;;;9.5;;
48627;SDS011;34424;52.234;6.500;2024-02-26T14:48:30;12.3;;;8.5;;
48627;SDS011;34424;52.234;6.500;2024-02-26T14:53:30;11.4;;;9.9;;
48627;SDS011;34424;52.234;6.500;2024-02-26T14:58:29;12.1;;;8.9;;
48627;SDS011;34424;52.234;6.500;2024-02-26T15:03:29;11.6;;;9.6;;
48627;SDS011;34424;52.234;6.500;2024-02-26T15:08:29;12.6;;;8;;
48627;SDS011;34424;52.234;6.500;2024-02-26T15:13:28;11.9;;;9.5;;
48627;SDS011;34424;52.234;6.500;2024-02-26T15:18:28;9.8;;;7.4;;
48627;SDS011;34424;52.234;6.500;2024-02-26T15:23:28;10.4;;;8.4;;
48627;SDS011;34424;52.234;6.500;2024-02-26T15:28:28;10.6;;;8.3;;
48627;SDS011;34424;52.234;6.500;2024-02-26T15:33:27;11.1;;;8.9;;
48627;SDS011;34424;52.234;6.500;2024-02-26T15:38:27;11.1;;;8.9;;
48627;SDS011;34424;52.234;6.500;2024-02-26T15:43:27;11.1;;;7.8;;
48627;SDS011;34424;52.234;6.500;2024-02-26T15:48:26;10.9;;;7.5;;
48627;SDS011;34424;52.234;6.500;2024-02-26T15:53:26;12.8;;;10.9;;
48627;SDS011;34424;52.234;6.500;2024-02-26T15:58:26;11.8;;;7.8;;
48627;SDS011;34424;52.234;6.500;2024-02-26T16:03:26;11.8;;;9.1;;
48627;SDS011;34424;52.234;6.500;2024-02-26T16:08:25;12.3;;;8.4;;
48627;SDS011;34424;52.234;6.500;2024-02-26T16:13:25;13.2;;;9.1;;
48627;SDS011;34424;52.234;6.500;2024-02-26T16:18:25;12.2;;;9.2;;
48627;SDS011;34424;52.234;6.500;2024-02-26T16:23:24;12.6;;;9.8;;
48627;SDS011;34424;52.234;6.500;2024-02-26T16:28:24;14.1;;;10.5;;
48627;SDS011;34424;52.234;6.500;2024-02-26T16:33:24;15.2;;;9.2;;
48627;SDS011;34424;52.234;6.500;2024-02-26T16:38:23;13.5;;;9.4;;
48627;SDS011;34424;52.234;6.500;2024-02-26T16:43:23;14.6;;;9.3;;
48627;SDS011;34424;52.234;6.500;2024-02-26T16:48:23;14.8;;;9.5;;
48627;SDS011;34424;52.234;6.500;2024-02-26T16:53:22;15.9;;;10.3;;
48627;SDS011;34424;52.234;6.500;2024-02-26T16:58:22;21;;;12.6;;
48627;SDS011;34424;52.234;6.500;2024-02-26T17:03:22;16.7;;;10.5;;
48627;SDS011;34424;52.234;6.500;2024-02-26T17:08:21;17.5;;;10.6;;
48627;SDS011;34424;52.234;6.500;2024-02-26T17:13:21;14.5;;;10.1;;
48627;SDS011;34424;52.234;6.500;2024-02-26T17:18:21;16.8;;;10.2;;
48627;SDS011;34424;52.234;6.500;2024-02-26T17:23:20;19.8;;;10.4;;
48627;SDS011;34424;52.234;6.500;2024-02-26T17:28:20;20.4;;;10.9;;
48627;SDS011;34424;52.234;6.500;2024-02-26T17:33:20;18;;;10.3;;
48627;SDS011;34424;52.234;6.500;2024-02-26T17:38:19;17.7;;;10.4;;
48627;SDS011;34424;52.234;6.500;2024-02-26T17:43:20;15.7;;;10.4;;
48627;SDS011;34424;52.234;6.500;2024-02-26T17:48:19;16.8;;;9.6;;
48627;SDS011;34424;52.234;6.500;2024-02-26T17:53:19;21.4;;;11.4;;
48627;SDS011;34424;52.234;6.500;2024-02-26T17:58:18;18.9;;;10.8;;
48627;SDS011;34424;52.234;6.500;2024-02-26T18:03:18;21.4;;;11.8;;
48627;SDS011;34424;52.234;6.500;2024-02-26T18:08:17;18.7;;;11.9;;
48627;SDS011;34424;52.234;6.500;2024-02-26T18:13:17;21.9;;;12.8;;
48627;SDS011;34424;52.234;6.500;2024-02-26T18:18:17;17.8;;;10.9;;
48627;SDS011;34424;52.234;6.500;2024-02-26T18:23:16;17.7;;;10.6;;
48627;SDS011;34424;52.234;6.500;2024-02-26T18:28:16;18.5;;;10.4;;
48627;SDS011;34424;52.234;6.500;2024-02-26T18:33:15;17.6;;;11.5;;
48627;SDS011;34424;52.234;6.500;2024-02-26T18:38:15;19;;;12.1;;
48627;SDS011;34424;52.234;6.500;2024-02-26T18:43:15;16.5;;;10;;
48627;SDS011;34424;52.234;6.500;2024-02-26T18:48:14;18.9;;;10.3;;
48627;SDS011;34424;52.234;6.500;2024-02-26T18:53:14;19.2;;;10.9;;
48627;SDS011;34424;52.234;6.500;2024-02-26T18:58:14;21.1;;;11.8;;
48627;SDS011;34424;52.234;6.500;2024-02-26T19:03:13;18.2;;;11;;
48627;SDS011;34424;52.234;6.500;2024-02-26T19:08:13;20.7;;;10.8;;
48627;SDS011;34424;52.234;6.500;2024-02-26T19:13:13;17.9;;;10.8;;
48627;SDS011;34424;52.234;6.500;2024-02-26T19:18:12;18.2;;;10.8;;
48627;SDS011;34424;52.234;6.500;2024-02-26T19:23:12;22.8;;;12.2;;
48627;SDS011;34424;52.234;6.500;2024-02-26T19:28:12;19.6;;;10.7;;
48627;SDS011;34424;52.234;6.500;2024-02-26T19:33:11;21.7;;;12.1;;
48627;SDS011;34424;52.234;6.500;2024-02-26T19:38:11;22.3;;;12.3;;
48627;SDS011;34424;52.234;6.500;2024-02-26T19:43:11;20.5;;;12.2;;
48627;SDS011;34424;52.234;6.500;2024-02-26T19:48:10;22.9;;;12.2;;
48627;SDS011;34424;52.234;6.500;2024-02-26T19:53:10;22.1;;;12.4;;
48627;SDS011;34424;52.234;6.500;2024-02-26T19:58:09;19.6;;;12;;
48627;SDS011;34424;52.234;6.500;2024-02-26T20:03:09;21.5;;;12.5;;
48627;SDS011;34424;52.234;6.500;2024-02-26T20:08:09;22.2;;;12.4;;
48627;SDS011;34424;52.234;6.500;2024-02-26T20:13:08;21;;;12;;
48627;SDS011;34424;52.234;6.500;2024-02-26T20:18:08;23;;;12.7;;
48627;SDS011;34424;52.234;6.500;2024-02-26T20:23:08;22.8;;;12.9;;
48627;SDS011;34424;52.234;6.500;2024-02-26T20:28:07;21.8;;;12;;
48627;SDS011;34424;52.234;6.500;2024-02-26T20:33:07;23.3;;;12.7;;
48627;SDS011;34424;52.234;6.500;2024-02-26T20:38:07;23;;;12.9;;
48627;SDS011;34424;52.234;6.500;2024-02-26T20:43:06;20.8;;;12.7;;
48627;SDS011;34424;52.234;6.500;2024-02-26T20:48:06;23.5;;;12.7;;
48627;SDS011;34424;52.234;6.500;2024-02-26T20:53:05;25.6;;;12.8;;
48627;SDS011;34424;52.234;6.500;2024-02-26T20:58:05;21.7;;;11.8;;
48627;SDS011;34424;52.234;6.500;2024-02-26T21:03:05;20.6;;;11.4;;
48627;SDS011;34424;52.234;6.500;2024-02-26T21:08:05;20.1;;;12;;
48627;SDS011;34424;52.234;6.500;2024-02-26T21:13:04;21;;;11.6;;
48627;SDS011;34424;52.234;6.500;2024-02-26T21:18:04;21.7;;;12;;
48627;SDS011;34424;52.234;6.500;2024-02-26T21:23:03;19.2;;;11.3;;
48627;SDS011;34424;52.234;6.500;2024-02-26T21:28:03;19;;;11.6;;
48627;SDS011;34424;52.234;6.500;2024-02-26T21:33:03;22.1;;;11.4;;
48627;SDS011;34424;52.234;6.500;2024-02-26T21:38:02;19.3;;;11.6;;
48627;SDS011;34424;52.234;6.500;2024-02-26T21:43:02;22.1;;;11.8;;
48627;SDS011;34424;52.234;6.500;2024-02-26T21:48:01;20.1;;;11.5;;
48627;SDS011;34424;52.234;6.500;2024-02-26T21:53:01;22;;;10.9;;
48627;SDS011;34424;52.234;6.500;2024-02-26T21:58:01;21.4;;;12.1;;
48627;SDS011;34424;52.234;6.500;2024-02-26T22:03:00;20;;;11;;
48627;SDS011;34424;52.234;6.500;2024-02-26T22:08:00;18.5;;;10.6;;
48627;SDS011;34424;52.234;6.500;2024-02-26T22:12:59;20.2;;;11.8;;
48627;SDS011;34424;52.234;6.500;2024-02-26T22:17:59;20.7;;;12.5;;
48627;SDS011;34424;52.234;6.500;2024-02-26T22:22:59;22.3;;;12.3;;
48627;SDS011;34424;52.234;6.500;2024-02-26T22:27:58;23.5;;;10.7;;
48627;SDS011;34424;52.234;6.500;2024-02-26T22:32:58;21.9;;;11.9;;
48627;SDS011;34424;52.234;6.500;2024-02-26T22:37:58;24;;;12.8;;
48627;SDS011;34424;52.234;6.500;2024-02-26T22:42:57;21.3;;;11.9;;
48627;SDS011;34424;52.234;6.500;2024-02-26T22:47:57;25.9;;;13.3;;
48627;SDS011;34424;52.234;6.500;2024-02-26T22:52:56;26.4;;;13.7;;
48627;SDS011;34424;52.234;6.500;2024-02-26T22:57:56;26.9;;;12.9;;
48627;SDS011;34424;52.234;6.500;2024-02-26T23:02:56;26.8;;;13.7;;
48627;SDS011;34424;52.234;6.500;2024-02-26T23:07:55;30.3;;;14.1;;
48627;SDS011;34424;52.234;6.500;2024-02-26T23:12:55;26.9;;;13;;
48627;SDS011;34424;52.234;6.500;2024-02-26T23:17:54;23.8;;;13.3;;
48627;SDS011;34424;52.234;6.500;2024-02-26T23:22:54;27.5;;;13.1;;
48627;SDS011;34424;52.234;6.500;2024-02-26T23:27:53;22.7;;;12.5;;
48627;SDS011;34424;52.234;6.500;2024-02-26T23:32:53;26.7;;;13.9;;
48627;SDS011;34424;52.234;6.500;2024-02-26T23:37:53;25.4;;;12.9;;
48627;SDS011;34424;52.234;6.500;2024-02-26T23:42:52;22.9;;;12.9;;
48627;SDS011;34424;52.234;6.500;2024-02-26T23:47:52;28.9;;;13.3;;
48627;SDS011;34424;52.234;6.500;2024-02-26T23:52:51;25.5;;;13.5;;
48627;SDS011;34424;52.234;6.500;2024-02-26T23:57:51;29;;;14.5;;
